sensor_id;sensor_type;location;lat;lon;timestamp;P1;durP1;ratioP1;P2;durP2;ratioP2
26502;SDS011;14177;51.520;6.764;2023-08-01T00:00:44;20.92;;;4.18;;
26502;SDS011;14177;51.520;6.764;2023-08-01T00:03:12;17.77;;;4.80;;
26502;SDS011;14177;51.520;6.764;2023-08-01T00:05:40;26.70;;;4.80;;
26502;SDS011;14177;51.520;6.764;2023-08-01T00:08:11;27.95;;;5.63;;
26502;SDS011;14177;51.520;6.764;2023-08-01T00:10:39;23.13;;;5.43;;
26502;SDS011;14177;51.520;6.764;2023-08-01T00:13:07;19.50;;;4.10;;
26502;SDS011;14177;51.520;6.764;2023-08-01T00:15:35;23.38;;;4.57;;
26502;SDS011;14177;51.520;6.764;2023-08-01T00:18:03;19.02;;;4.55;;
26502;SDS011;14177;51.520;6.764;2023-08-01T00:20:30;22.70;;;5.65;;
26502;SDS011;14177;51.520;6.764;2023-08-01T00:22:57;21.40;;;4.47;;
26502;SDS011;14177;51.520;6.764;2023-08-01T00:25:24;22.45;;;4.75;;
26502;SDS011;14177;51.520;6.764;2023-08-01T00:27:51;23.02;;;4.00;;
26502;SDS011;14177;51.520;6.764;2023-08-01T00:30:19;18.80;;;4.80;;
26502;SDS011;14177;51.520;6.764;2023-08-01T00:32:47;13.10;;;3.53;;
26502;SDS011;14177;51.520;6.764;2023-08-01T00:35:14;17.73;;;5.05;;
26502;SDS011;14177;51.520;6.764;2023-08-01T00:37:42;25.83;;;5.80;;
26502;SDS011;14177;51.520;6.764;2023-08-01T00:40:09;20.40;;;4.15;;
26502;SDS011;14177;51.520;6.764;2023-08-01T00:42:37;21.65;;;3.72;;
26502;SDS011;14177;51.520;6.764;2023-08-01T00:45:05;20.52;;;3.88;;
26502;SDS011;14177;51.520;6.764;2023-08-01T00:47:33;15.57;;;3.20;;
26502;SDS011;14177;51.520;6.764;2023-08-01T00:50:01;23.83;;;4.63;;
26502;SDS011;14177;51.520;6.764;2023-08-01T00:52:29;21.48;;;3.78;;
26502;SDS011;14177;51.520;6.764;2023-08-01T00:54:56;17.45;;;3.42;;
26502;SDS011;14177;51.520;6.764;2023-08-01T00:57:23;22.27;;;4.82;;
26502;SDS011;14177;51.520;6.764;2023-08-01T00:59:51;18.10;;;4.75;;
26502;SDS011;14177;51.520;6.764;2023-08-01T01:02:18;34.45;;;6.85;;
26502;SDS011;14177;51.520;6.764;2023-08-01T01:04:45;19.58;;;3.83;;
26502;SDS011;14177;51.520;6.764;2023-08-01T01:07:12;24.23;;;5.32;;
26502;SDS011;14177;51.520;6.764;2023-08-01T01:09:41;23.42;;;3.70;;
26502;SDS011;14177;51.520;6.764;2023-08-01T01:12:08;23.88;;;4.75;;
26502;SDS011;14177;51.520;6.764;2023-08-01T01:14:35;20.25;;;3.63;;
26502;SDS011;14177;51.520;6.764;2023-08-01T01:17:02;18.25;;;3.65;;
26502;SDS011;14177;51.520;6.764;2023-08-01T01:19:29;21.83;;;4.50;;
26502;SDS011;14177;51.520;6.764;2023-08-01T01:21:56;18.52;;;4.10;;
26502;SDS011;14177;51.520;6.764;2023-08-01T01:24:25;29.10;;;6.35;;
26502;SDS011;14177;51.520;6.764;2023-08-01T01:26:54;22.77;;;4.65;;
26502;SDS011;14177;51.520;6.764;2023-08-01T01:29:25;23.55;;;4.47;;
26502;SDS011;14177;51.520;6.764;2023-08-01T01:31:54;21.13;;;3.85;;
26502;SDS011;14177;51.520;6.764;2023-08-01T01:34:22;30.85;;;6.93;;
26502;SDS011;14177;51.520;6.764;2023-08-01T01:36:49;19.85;;;3.75;;
26502;SDS011;14177;51.520;6.764;2023-08-01T01:39:16;19.85;;;4.28;;
26502;SDS011;14177;51.520;6.764;2023-08-01T01:41:44;23.42;;;5.53;;
26502;SDS011;14177;51.520;6.764;2023-08-01T01:44:11;26.48;;;5.82;;
26502;SDS011;14177;51.520;6.764;2023-08-01T01:46:38;29.98;;;4.88;;
26502;SDS011;14177;51.520;6.764;2023-08-01T01:49:05;19.85;;;3.85;;
26502;SDS011;14177;51.520;6.764;2023-08-01T01:51:32;28.73;;;5.70;;
26502;SDS011;14177;51.520;6.764;2023-08-01T01:53:59;20.52;;;3.70;;
26502;SDS011;14177;51.520;6.764;2023-08-01T01:56:26;28.27;;;7.18;;
26502;SDS011;14177;51.520;6.764;2023-08-01T01:58:53;18.23;;;4.60;;
26502;SDS011;14177;51.520;6.764;2023-08-01T02:01:20;28.42;;;6.57;;
26502;SDS011;14177;51.520;6.764;2023-08-01T02:03:48;21.30;;;4.18;;
26502;SDS011;14177;51.520;6.764;2023-08-01T02:06:14;26.25;;;6.85;;
26502;SDS011;14177;51.520;6.764;2023-08-01T02:08:42;33.40;;;7.10;;
26502;SDS011;14177;51.520;6.764;2023-08-01T02:11:10;27.50;;;6.07;;
26502;SDS011;14177;51.520;6.764;2023-08-01T02:13:37;36.55;;;7.18;;
26502;SDS011;14177;51.520;6.764;2023-08-01T02:16:04;35.22;;;6.28;;
26502;SDS011;14177;51.520;6.764;2023-08-01T02:18:30;32.15;;;5.97;;
26502;SDS011;14177;51.520;6.764;2023-08-01T02:20:57;39.75;;;6.93;;
26502;SDS011;14177;51.520;6.764;2023-08-01T02:23:24;33.03;;;6.55;;
26502;SDS011;14177;51.520;6.764;2023-08-01T02:25:51;31.38;;;7.43;;
26502;SDS011;14177;51.520;6.764;2023-08-01T02:28:18;39.55;;;8.80;;
26502;SDS011;14177;51.520;6.764;2023-08-01T02:30:45;35.55;;;6.80;;
26502;SDS011;14177;51.520;6.764;2023-08-01T02:33:12;35.47;;;7.85;;
26502;SDS011;14177;51.520;6.764;2023-08-01T02:35:39;32.67;;;7.18;;
26502;SDS011;14177;51.520;6.764;2023-08-01T02:38:07;34.47;;;7.60;;
26502;SDS011;14177;51.520;6.764;2023-08-01T02:40:33;31.15;;;6.80;;
26502;SDS011;14177;51.520;6.764;2023-08-01T02:43:00;40.10;;;7.80;;
26502;SDS011;14177;51.520;6.764;2023-08-01T02:45:27;38.20;;;9.70;;
26502;SDS011;14177;51.520;6.764;2023-08-01T02:47:55;33.05;;;8.15;;
26502;SDS011;14177;51.520;6.764;2023-08-01T02:50:24;45.45;;;12.13;;
26502;SDS011;14177;51.520;6.764;2023-08-01T02:52:51;34.85;;;9.25;;
26502;SDS011;14177;51.520;6.764;2023-08-01T02:55:18;45.72;;;11.70;;
26502;SDS011;14177;51.520;6.764;2023-08-01T02:57:46;40.05;;;10.00;;
26502;SDS011;14177;51.520;6.764;2023-08-01T03:00:13;39.85;;;11.73;;
26502;SDS011;14177;51.520;6.764;2023-08-01T03:02:40;39.60;;;10.98;;
26502;SDS011;14177;51.520;6.764;2023-08-01T03:05:07;41.97;;;9.80;;
26502;SDS011;14177;51.520;6.764;2023-08-01T03:07:36;32.47;;;9.55;;
26502;SDS011;14177;51.520;6.764;2023-08-01T03:10:03;43.20;;;10.32;;
26502;SDS011;14177;51.520;6.764;2023-08-01T03:12:30;37.22;;;9.32;;
26502;SDS011;14177;51.520;6.764;2023-08-01T03:14:57;38.10;;;10.65;;
26502;SDS011;14177;51.520;6.764;2023-08-01T03:17:26;53.03;;;14.00;;
26502;SDS011;14177;51.520;6.764;2023-08-01T03:19:53;42.83;;;11.48;;
26502;SDS011;14177;51.520;6.764;2023-08-01T03:22:19;40.83;;;11.23;;
26502;SDS011;14177;51.520;6.764;2023-08-01T03:24:48;41.42;;;12.43;;
26502;SDS011;14177;51.520;6.764;2023-08-01T03:27:15;45.25;;;12.63;;
26502;SDS011;14177;51.520;6.764;2023-08-01T03:29:42;44.17;;;11.27;;
26502;SDS011;14177;51.520;6.764;2023-08-01T03:32:09;41.15;;;10.68;;
26502;SDS011;14177;51.520;6.764;2023-08-01T03:34:36;43.15;;;12.10;;
26502;SDS011;14177;51.520;6.764;2023-08-01T03:37:05;38.40;;;10.98;;
26502;SDS011;14177;51.520;6.764;2023-08-01T03:39:32;57.72;;;13.18;;
26502;SDS011;14177;51.520;6.764;2023-08-01T03:41:59;42.20;;;11.77;;
26502;SDS011;14177;51.520;6.764;2023-08-01T03:44:26;46.42;;;13.23;;
26502;SDS011;14177;51.520;6.764;2023-08-01T03:46:53;49.60;;;12.60;;
26502;SDS011;14177;51.520;6.764;2023-08-01T03:49:20;44.55;;;12.35;;
26502;SDS011;14177;51.520;6.764;2023-08-01T03:51:48;48.85;;;11.75;;
26502;SDS011;14177;51.520;6.764;2023-08-01T03:54:15;42.88;;;11.13;;
26502;SDS011;14177;51.520;6.764;2023-08-01T03:56:42;46.50;;;11.30;;
26502;SDS011;14177;51.520;6.764;2023-08-01T03:59:15;33.13;;;9.52;;
26502;SDS011;14177;51.520;6.764;2023-08-01T04:01:44;51.42;;;12.43;;
26502;SDS011;14177;51.520;6.764;2023-08-01T04:04:11;42.72;;;10.52;;
26502;SDS011;14177;51.520;6.764;2023-08-01T04:06:38;39.95;;;10.25;;
26502;SDS011;14177;51.520;6.764;2023-08-01T04:09:05;48.03;;;11.65;;
26502;SDS011;14177;51.520;6.764;2023-08-01T04:11:33;39.15;;;10.85;;
26502;SDS011;14177;51.520;6.764;2023-08-01T04:14:00;47.80;;;11.63;;
26502;SDS011;14177;51.520;6.764;2023-08-01T04:16:27;45.20;;;12.07;;
26502;SDS011;14177;51.520;6.764;2023-08-01T04:18:54;48.30;;;10.52;;
26502;SDS011;14177;51.520;6.764;2023-08-01T04:21:21;49.72;;;11.45;;
26502;SDS011;14177;51.520;6.764;2023-08-01T04:23:48;48.58;;;11.40;;
26502;SDS011;14177;51.520;6.764;2023-08-01T04:26:15;43.53;;;11.75;;
26502;SDS011;14177;51.520;6.764;2023-08-01T04:28:42;36.83;;;10.05;;
26502;SDS011;14177;51.520;6.764;2023-08-01T04:31:09;42.22;;;11.02;;
26502;SDS011;14177;51.520;6.764;2023-08-01T04:33:36;46.72;;;11.60;;
26502;SDS011;14177;51.520;6.764;2023-08-01T04:36:03;50.85;;;11.45;;
26502;SDS011;14177;51.520;6.764;2023-08-01T04:38:30;44.35;;;12.02;;
26502;SDS011;14177;51.520;6.764;2023-08-01T04:40:57;38.53;;;10.63;;
26502;SDS011;14177;51.520;6.764;2023-08-01T04:43:24;52.97;;;13.85;;
26502;SDS011;14177;51.520;6.764;2023-08-01T04:45:51;45.08;;;11.45;;
26502;SDS011;14177;51.520;6.764;2023-08-01T04:48:18;47.90;;;12.75;;
26502;SDS011;14177;51.520;6.764;2023-08-01T04:50:45;49.08;;;11.98;;
26502;SDS011;14177;51.520;6.764;2023-08-01T04:53:13;38.25;;;10.27;;
26502;SDS011;14177;51.520;6.764;2023-08-01T04:55:40;42.28;;;11.48;;
26502;SDS011;14177;51.520;6.764;2023-08-01T04:58:07;51.10;;;11.93;;
26502;SDS011;14177;51.520;6.764;2023-08-01T05:00:37;44.38;;;11.68;;
26502;SDS011;14177;51.520;6.764;2023-08-01T05:03:07;46.60;;;11.95;;
26502;SDS011;14177;51.520;6.764;2023-08-01T05:05:34;48.70;;;13.60;;
26502;SDS011;14177;51.520;6.764;2023-08-01T05:08:01;42.53;;;12.55;;
26502;SDS011;14177;51.520;6.764;2023-08-01T05:10:28;47.17;;;13.05;;
26502;SDS011;14177;51.520;6.764;2023-08-01T05:12:55;43.20;;;12.02;;
26502;SDS011;14177;51.520;6.764;2023-08-01T05:15:22;48.05;;;14.73;;
26502;SDS011;14177;51.520;6.764;2023-08-01T05:17:49;50.00;;;13.60;;
26502;SDS011;14177;51.520;6.764;2023-08-01T05:20:16;50.42;;;14.95;;
26502;SDS011;14177;51.520;6.764;2023-08-01T05:22:43;51.85;;;14.00;;
26502;SDS011;14177;51.520;6.764;2023-08-01T05:25:11;48.97;;;13.75;;
26502;SDS011;14177;51.520;6.764;2023-08-01T05:27:38;51.20;;;14.40;;
26502;SDS011;14177;51.520;6.764;2023-08-01T05:30:05;52.58;;;16.38;;
26502;SDS011;14177;51.520;6.764;2023-08-01T05:32:32;61.45;;;16.73;;
26502;SDS011;14177;51.520;6.764;2023-08-01T05:34:59;49.78;;;13.80;;
26502;SDS011;14177;51.520;6.764;2023-08-01T05:37:26;56.30;;;16.25;;
26502;SDS011;14177;51.520;6.764;2023-08-01T05:39:53;50.45;;;15.63;;
26502;SDS011;14177;51.520;6.764;2023-08-01T05:42:20;56.08;;;16.30;;
26502;SDS011;14177;51.520;6.764;2023-08-01T05:44:47;50.88;;;15.23;;
26502;SDS011;14177;51.520;6.764;2023-08-01T05:47:14;48.30;;;15.00;;
26502;SDS011;14177;51.520;6.764;2023-08-01T05:49:41;52.67;;;15.27;;
26502;SDS011;14177;51.520;6.764;2023-08-01T05:52:08;54.55;;;15.57;;
26502;SDS011;14177;51.520;6.764;2023-08-01T05:54:35;59.53;;;17.02;;
26502;SDS011;14177;51.520;6.764;2023-08-01T05:57:02;40.15;;;12.73;;
26502;SDS011;14177;51.520;6.764;2023-08-01T05:59:29;48.67;;;16.05;;
26502;SDS011;14177;51.520;6.764;2023-08-01T06:01:56;49.65;;;15.38;;
26502;SDS011;14177;51.520;6.764;2023-08-01T06:04:23;53.53;;;15.93;;
26502;SDS011;14177;51.520;6.764;2023-08-01T06:06:50;61.63;;;17.25;;
26502;SDS011;14177;51.520;6.764;2023-08-01T06:09:17;39.08;;;13.68;;
26502;SDS011;14177;51.520;6.764;2023-08-01T06:11:45;48.30;;;14.40;;
26502;SDS011;14177;51.520;6.764;2023-08-01T06:14:12;46.22;;;14.65;;
26502;SDS011;14177;51.520;6.764;2023-08-01T06:16:39;51.13;;;16.13;;
26502;SDS011;14177;51.520;6.764;2023-08-01T06:19:07;48.72;;;13.75;;
26502;SDS011;14177;51.520;6.764;2023-08-01T06:21:34;51.17;;;14.73;;
26502;SDS011;14177;51.520;6.764;2023-08-01T06:24:01;39.95;;;13.13;;
26502;SDS011;14177;51.520;6.764;2023-08-01T06:26:29;48.53;;;13.90;;
26502;SDS011;14177;51.520;6.764;2023-08-01T06:28:56;55.70;;;15.63;;
26502;SDS011;14177;51.520;6.764;2023-08-01T06:31:22;51.47;;;14.55;;
26502;SDS011;14177;51.520;6.764;2023-08-01T06:33:50;47.78;;;13.85;;
26502;SDS011;14177;51.520;6.764;2023-08-01T06:36:17;49.03;;;15.60;;
26502;SDS011;14177;51.520;6.764;2023-08-01T06:38:44;47.65;;;13.32;;
26502;SDS011;14177;51.520;6.764;2023-08-01T06:41:11;42.85;;;13.60;;
26502;SDS011;14177;51.520;6.764;2023-08-01T06:43:38;47.30;;;14.35;;
26502;SDS011;14177;51.520;6.764;2023-08-01T06:46:05;42.03;;;12.60;;
26502;SDS011;14177;51.520;6.764;2023-08-01T06:48:32;48.72;;;14.18;;
26502;SDS011;14177;51.520;6.764;2023-08-01T06:51:02;54.67;;;14.45;;
26502;SDS011;14177;51.520;6.764;2023-08-01T06:53:29;50.90;;;15.32;;
26502;SDS011;14177;51.520;6.764;2023-08-01T06:55:56;45.72;;;13.65;;
26502;SDS011;14177;51.520;6.764;2023-08-01T06:58:23;46.90;;;14.35;;
26502;SDS011;14177;51.520;6.764;2023-08-01T07:00:50;51.65;;;15.40;;
26502;SDS011;14177;51.520;6.764;2023-08-01T07:03:17;63.20;;;16.50;;
26502;SDS011;14177;51.520;6.764;2023-08-01T07:05:44;44.08;;;14.00;;
26502;SDS011;14177;51.520;6.764;2023-08-01T07:08:11;49.20;;;14.80;;
26502;SDS011;14177;51.520;6.764;2023-08-01T07:10:39;46.08;;;14.90;;
26502;SDS011;14177;51.520;6.764;2023-08-01T07:13:05;53.58;;;15.43;;
26502;SDS011;14177;51.520;6.764;2023-08-01T07:15:33;54.08;;;14.77;;
26502;SDS011;14177;51.520;6.764;2023-08-01T07:18:00;44.08;;;12.52;;
26502;SDS011;14177;51.520;6.764;2023-08-01T07:20:27;46.40;;;12.43;;
26502;SDS011;14177;51.520;6.764;2023-08-01T07:22:54;43.00;;;12.10;;
26502;SDS011;14177;51.520;6.764;2023-08-01T07:25:21;50.10;;;13.02;;
26502;SDS011;14177;51.520;6.764;2023-08-01T07:27:48;44.03;;;11.73;;
26502;SDS011;14177;51.520;6.764;2023-08-01T07:30:15;46.35;;;11.90;;
26502;SDS011;14177;51.520;6.764;2023-08-01T07:32:42;44.53;;;12.02;;
26502;SDS011;14177;51.520;6.764;2023-08-01T07:35:10;40.38;;;10.20;;
26502;SDS011;14177;51.520;6.764;2023-08-01T07:37:37;42.30;;;11.25;;
26502;SDS011;14177;51.520;6.764;2023-08-01T07:40:05;44.75;;;11.65;;
26502;SDS011;14177;51.520;6.764;2023-08-01T07:42:33;38.55;;;10.85;;
26502;SDS011;14177;51.520;6.764;2023-08-01T07:45:00;39.55;;;10.10;;
26502;SDS011;14177;51.520;6.764;2023-08-01T07:47:27;37.70;;;11.43;;
26502;SDS011;14177;51.520;6.764;2023-08-01T07:49:54;38.08;;;10.38;;
26502;SDS011;14177;51.520;6.764;2023-08-01T07:52:21;35.33;;;9.85;;
26502;SDS011;14177;51.520;6.764;2023-08-01T07:54:48;42.13;;;11.45;;
26502;SDS011;14177;51.520;6.764;2023-08-01T07:57:15;34.67;;;9.32;;
26502;SDS011;14177;51.520;6.764;2023-08-01T07:59:42;37.00;;;10.43;;
26502;SDS011;14177;51.520;6.764;2023-08-01T08:02:09;35.15;;;10.02;;
26502;SDS011;14177;51.520;6.764;2023-08-01T08:04:36;39.15;;;10.70;;
26502;SDS011;14177;51.520;6.764;2023-08-01T08:07:02;38.22;;;9.75;;
26502;SDS011;14177;51.520;6.764;2023-08-01T08:09:30;33.63;;;8.85;;
26502;SDS011;14177;51.520;6.764;2023-08-01T08:11:57;41.25;;;11.50;;
26502;SDS011;14177;51.520;6.764;2023-08-01T08:14:24;37.85;;;10.35;;
26502;SDS011;14177;51.520;6.764;2023-08-01T08:16:51;30.60;;;9.15;;
26502;SDS011;14177;51.520;6.764;2023-08-01T08:19:18;31.50;;;8.32;;
26502;SDS011;14177;51.520;6.764;2023-08-01T08:21:45;36.90;;;10.82;;
26502;SDS011;14177;51.520;6.764;2023-08-01T08:24:12;34.25;;;9.93;;
26502;SDS011;14177;51.520;6.764;2023-08-01T08:26:39;33.28;;;10.43;;
26502;SDS011;14177;51.520;6.764;2023-08-01T08:29:07;37.15;;;10.32;;
26502;SDS011;14177;51.520;6.764;2023-08-01T08:31:34;33.55;;;9.43;;
26502;SDS011;14177;51.520;6.764;2023-08-01T08:34:02;33.10;;;9.02;;
26502;SDS011;14177;51.520;6.764;2023-08-01T08:36:29;37.65;;;9.18;;
26502;SDS011;14177;51.520;6.764;2023-08-01T08:38:56;35.28;;;9.85;;
26502;SDS011;14177;51.520;6.764;2023-08-01T08:41:23;34.95;;;9.55;;
26502;SDS011;14177;51.520;6.764;2023-08-01T08:43:55;33.53;;;9.75;;
26502;SDS011;14177;51.520;6.764;2023-08-01T08:46:27;29.40;;;8.50;;
26502;SDS011;14177;51.520;6.764;2023-08-01T08:48:56;34.03;;;8.88;;
26502;SDS011;14177;51.520;6.764;2023-08-01T08:51:25;29.50;;;7.80;;
26502;SDS011;14177;51.520;6.764;2023-08-01T08:53:55;30.15;;;7.80;;
26502;SDS011;14177;51.520;6.764;2023-08-01T08:56:26;31.67;;;8.90;;
26502;SDS011;14177;51.520;6.764;2023-08-01T08:58:55;28.77;;;7.60;;
26502;SDS011;14177;51.520;6.764;2023-08-01T09:01:23;34.83;;;7.60;;
26502;SDS011;14177;51.520;6.764;2023-08-01T09:03:50;29.58;;;7.70;;
26502;SDS011;14177;51.520;6.764;2023-08-01T09:06:24;31.52;;;8.10;;
26502;SDS011;14177;51.520;6.764;2023-08-01T09:09:01;34.28;;;7.93;;
26502;SDS011;14177;51.520;6.764;2023-08-01T09:11:50;32.80;;;8.85;;
26502;SDS011;14177;51.520;6.764;2023-08-01T09:14:19;25.35;;;6.70;;
26502;SDS011;14177;51.520;6.764;2023-08-01T09:16:46;25.70;;;6.82;;
26502;SDS011;14177;51.520;6.764;2023-08-01T09:19:17;29.42;;;7.07;;
26502;SDS011;14177;51.520;6.764;2023-08-01T09:21:50;31.15;;;8.30;;
26502;SDS011;14177;51.520;6.764;2023-08-01T09:24:18;28.42;;;7.00;;
26502;SDS011;14177;51.520;6.764;2023-08-01T09:26:47;30.05;;;7.03;;
26502;SDS011;14177;51.520;6.764;2023-08-01T09:29:15;25.08;;;5.80;;
26502;SDS011;14177;51.520;6.764;2023-08-01T09:31:44;24.48;;;6.40;;
26502;SDS011;14177;51.520;6.764;2023-08-01T09:34:18;26.67;;;6.15;;
26502;SDS011;14177;51.520;6.764;2023-08-01T09:36:49;26.35;;;6.43;;
26502;SDS011;14177;51.520;6.764;2023-08-01T09:39:18;27.70;;;7.15;;
26502;SDS011;14177;51.520;6.764;2023-08-01T09:42:00;28.15;;;7.00;;
26502;SDS011;14177;51.520;6.764;2023-08-01T09:44:28;23.23;;;5.60;;
26502;SDS011;14177;51.520;6.764;2023-08-01T09:47:00;27.05;;;6.63;;
26502;SDS011;14177;51.520;6.764;2023-08-01T09:49:34;21.98;;;5.60;;
26502;SDS011;14177;51.520;6.764;2023-08-01T09:52:03;27.60;;;6.05;;
26502;SDS011;14177;51.520;6.764;2023-08-01T09:54:30;27.05;;;6.72;;
26502;SDS011;14177;51.520;6.764;2023-08-01T09:56:57;30.20;;;7.30;;
26502;SDS011;14177;51.520;6.764;2023-08-01T09:59:25;25.92;;;6.28;;
26502;SDS011;14177;51.520;6.764;2023-08-01T10:01:53;28.05;;;6.38;;
26502;SDS011;14177;51.520;6.764;2023-08-01T10:04:25;27.95;;;7.15;;
26502;SDS011;14177;51.520;6.764;2023-08-01T10:06:58;27.77;;;5.97;;
26502;SDS011;14177;51.520;6.764;2023-08-01T10:09:32;27.85;;;6.93;;
26502;SDS011;14177;51.520;6.764;2023-08-01T10:12:04;27.23;;;6.53;;
26502;SDS011;14177;51.520;6.764;2023-08-01T10:14:34;22.02;;;5.90;;
26502;SDS011;14177;51.520;6.764;2023-08-01T10:17:02;28.70;;;6.18;;
26502;SDS011;14177;51.520;6.764;2023-08-01T10:19:30;19.65;;;5.55;;
26502;SDS011;14177;51.520;6.764;2023-08-01T10:21:59;31.55;;;6.70;;
26502;SDS011;14177;51.520;6.764;2023-08-01T10:24:27;29.98;;;6.88;;
26502;SDS011;14177;51.520;6.764;2023-08-01T10:26:56;25.25;;;6.68;;
26502;SDS011;14177;51.520;6.764;2023-08-01T10:29:34;27.85;;;7.32;;
26502;SDS011;14177;51.520;6.764;2023-08-01T10:32:02;26.55;;;6.50;;
26502;SDS011;14177;51.520;6.764;2023-08-01T10:34:33;23.90;;;6.07;;
26502;SDS011;14177;51.520;6.764;2023-08-01T10:37:01;31.92;;;7.43;;
26502;SDS011;14177;51.520;6.764;2023-08-01T10:39:28;31.60;;;6.55;;
26502;SDS011;14177;51.520;6.764;2023-08-01T10:41:59;30.33;;;7.70;;
26502;SDS011;14177;51.520;6.764;2023-08-01T10:44:28;24.27;;;5.20;;
26502;SDS011;14177;51.520;6.764;2023-08-01T10:46:59;25.90;;;5.97;;
26502;SDS011;14177;51.520;6.764;2023-08-01T10:55:00;24.48;;;5.80;;
26502;SDS011;14177;51.520;6.764;2023-08-01T10:57:30;17.73;;;4.45;;
26502;SDS011;14177;51.520;6.764;2023-08-01T11:00:00;24.65;;;5.53;;
26502;SDS011;14177;51.520;6.764;2023-08-01T11:02:31;30.60;;;7.18;;
26502;SDS011;14177;51.520;6.764;2023-08-01T11:04:59;28.52;;;5.88;;
26502;SDS011;14177;51.520;6.764;2023-08-01T11:07:28;28.90;;;5.88;;
26502;SDS011;14177;51.520;6.764;2023-08-01T11:10:12;24.17;;;5.90;;
26502;SDS011;14177;51.520;6.764;2023-08-01T11:12:40;25.33;;;6.10;;
26502;SDS011;14177;51.520;6.764;2023-08-01T11:15:10;26.98;;;6.70;;
26502;SDS011;14177;51.520;6.764;2023-08-01T11:17:40;25.88;;;6.68;;
26502;SDS011;14177;51.520;6.764;2023-08-01T11:20:12;25.67;;;5.20;;
26502;SDS011;14177;51.520;6.764;2023-08-01T11:25:38;28.00;;;4.97;;
26502;SDS011;14177;51.520;6.764;2023-08-01T11:28:13;29.65;;;6.40;;
26502;SDS011;14177;51.520;6.764;2023-08-01T11:30:42;27.77;;;6.28;;
26502;SDS011;14177;51.520;6.764;2023-08-01T11:33:17;27.55;;;5.50;;
26502;SDS011;14177;51.520;6.764;2023-08-01T11:35:53;26.63;;;5.80;;
26502;SDS011;14177;51.520;6.764;2023-08-01T11:38:26;26.70;;;5.40;;
26502;SDS011;14177;51.520;6.764;2023-08-01T11:40:56;30.40;;;6.88;;
26502;SDS011;14177;51.520;6.764;2023-08-01T11:43:24;26.45;;;5.13;;
26502;SDS011;14177;51.520;6.764;2023-08-01T11:45:52;27.00;;;6.13;;
26502;SDS011;14177;51.520;6.764;2023-08-01T11:48:21;25.30;;;5.55;;
26502;SDS011;14177;51.520;6.764;2023-08-01T11:50:58;27.63;;;6.03;;
26502;SDS011;14177;51.520;6.764;2023-08-01T11:53:27;31.85;;;6.53;;
26502;SDS011;14177;51.520;6.764;2023-08-01T11:55:56;28.98;;;6.32;;
26502;SDS011;14177;51.520;6.764;2023-08-01T11:58:29;23.63;;;4.90;;
26502;SDS011;14177;51.520;6.764;2023-08-01T12:01:02;27.33;;;6.47;;
26502;SDS011;14177;51.520;6.764;2023-08-01T12:03:43;25.65;;;6.25;;
26502;SDS011;14177;51.520;6.764;2023-08-01T12:06:21;27.13;;;5.60;;
26502;SDS011;14177;51.520;6.764;2023-08-01T12:08:53;29.85;;;6.18;;
26502;SDS011;14177;51.520;6.764;2023-08-01T12:11:24;26.67;;;6.10;;
26502;SDS011;14177;51.520;6.764;2023-08-01T12:16:38;24.60;;;5.57;;
26502;SDS011;14177;51.520;6.764;2023-08-01T12:19:12;25.27;;;5.15;;
26502;SDS011;14177;51.520;6.764;2023-08-01T12:21:44;25.67;;;6.28;;
26502;SDS011;14177;51.520;6.764;2023-08-01T12:24:11;26.15;;;6.25;;
26502;SDS011;14177;51.520;6.764;2023-08-01T12:26:39;32.42;;;6.05;;
26502;SDS011;14177;51.520;6.764;2023-08-01T12:29:06;27.35;;;5.97;;
26502;SDS011;14177;51.520;6.764;2023-08-01T12:31:34;31.70;;;7.60;;
26502;SDS011;14177;51.520;6.764;2023-08-01T12:34:01;27.33;;;5.80;;
26502;SDS011;14177;51.520;6.764;2023-08-01T12:36:28;30.60;;;5.72;;
26502;SDS011;14177;51.520;6.764;2023-08-01T12:38:55;24.98;;;6.18;;
26502;SDS011;14177;51.520;6.764;2023-08-01T12:41:21;28.55;;;5.80;;
26502;SDS011;14177;51.520;6.764;2023-08-01T12:43:49;28.98;;;7.35;;
26502;SDS011;14177;51.520;6.764;2023-08-01T12:46:16;23.02;;;4.88;;
26502;SDS011;14177;51.520;6.764;2023-08-01T12:48:43;31.90;;;5.85;;
26502;SDS011;14177;51.520;6.764;2023-08-01T12:51:10;24.00;;;5.30;;
26502;SDS011;14177;51.520;6.764;2023-08-01T12:53:37;24.83;;;5.78;;
26502;SDS011;14177;51.520;6.764;2023-08-01T12:56:09;23.17;;;5.22;;
26502;SDS011;14177;51.520;6.764;2023-08-01T12:58:36;22.42;;;5.82;;
26502;SDS011;14177;51.520;6.764;2023-08-01T13:01:03;30.83;;;7.40;;
26502;SDS011;14177;51.520;6.764;2023-08-01T13:03:30;26.65;;;5.95;;
26502;SDS011;14177;51.520;6.764;2023-08-01T13:05:58;20.15;;;5.05;;
26502;SDS011;14177;51.520;6.764;2023-08-01T13:08:25;20.92;;;4.60;;
26502;SDS011;14177;51.520;6.764;2023-08-01T13:10:52;24.00;;;6.15;;
26502;SDS011;14177;51.520;6.764;2023-08-01T13:13:19;19.42;;;5.47;;
26502;SDS011;14177;51.520;6.764;2023-08-01T13:15:46;22.58;;;5.38;;
26502;SDS011;14177;51.520;6.764;2023-08-01T13:18:13;21.08;;;4.78;;
26502;SDS011;14177;51.520;6.764;2023-08-01T13:20:40;23.38;;;5.75;;
26502;SDS011;14177;51.520;6.764;2023-08-01T13:23:07;26.90;;;5.65;;
26502;SDS011;14177;51.520;6.764;2023-08-01T13:25:34;23.75;;;4.93;;
26502;SDS011;14177;51.520;6.764;2023-08-01T13:28:02;22.33;;;5.07;;
26502;SDS011;14177;51.520;6.764;2023-08-01T13:30:29;21.05;;;5.28;;
26502;SDS011;14177;51.520;6.764;2023-08-01T13:32:56;20.67;;;5.78;;
26502;SDS011;14177;51.520;6.764;2023-08-01T13:35:23;23.15;;;5.57;;
26502;SDS011;14177;51.520;6.764;2023-08-01T13:37:50;21.95;;;5.07;;
26502;SDS011;14177;51.520;6.764;2023-08-01T13:40:17;22.05;;;5.32;;
26502;SDS011;14177;51.520;6.764;2023-08-01T13:42:44;16.95;;;3.88;;
26502;SDS011;14177;51.520;6.764;2023-08-01T13:45:11;20.20;;;4.63;;
26502;SDS011;14177;51.520;6.764;2023-08-01T13:47:38;14.77;;;3.58;;
26502;SDS011;14177;51.520;6.764;2023-08-01T13:50:09;23.00;;;4.63;;
26502;SDS011;14177;51.520;6.764;2023-08-01T13:52:36;24.35;;;4.78;;
26502;SDS011;14177;51.520;6.764;2023-08-01T13:55:04;19.50;;;4.38;;
26502;SDS011;14177;51.520;6.764;2023-08-01T13:57:33;24.65;;;4.95;;
26502;SDS011;14177;51.520;6.764;2023-08-01T14:00:00;21.60;;;5.53;;
26502;SDS011;14177;51.520;6.764;2023-08-01T14:02:40;24.70;;;5.38;;
26502;SDS011;14177;51.520;6.764;2023-08-01T14:05:08;30.65;;;5.20;;
26502;SDS011;14177;51.520;6.764;2023-08-01T14:07:36;33.08;;;5.43;;
26502;SDS011;14177;51.520;6.764;2023-08-01T14:10:07;35.28;;;5.68;;
26502;SDS011;14177;51.520;6.764;2023-08-01T14:12:35;30.23;;;4.40;;
26502;SDS011;14177;51.520;6.764;2023-08-01T14:15:03;27.15;;;5.68;;
26502;SDS011;14177;51.520;6.764;2023-08-01T14:17:30;30.38;;;5.47;;
26502;SDS011;14177;51.520;6.764;2023-08-01T14:19:57;27.67;;;5.55;;
26502;SDS011;14177;51.520;6.764;2023-08-01T14:22:25;34.45;;;5.82;;
26502;SDS011;14177;51.520;6.764;2023-08-01T14:24:53;29.75;;;5.63;;
26502;SDS011;14177;51.520;6.764;2023-08-01T14:27:20;28.35;;;4.65;;
26502;SDS011;14177;51.520;6.764;2023-08-01T14:29:47;34.22;;;5.70;;
26502;SDS011;14177;51.520;6.764;2023-08-01T14:32:16;30.60;;;5.10;;
26502;SDS011;14177;51.520;6.764;2023-08-01T14:34:44;33.75;;;6.07;;
26502;SDS011;14177;51.520;6.764;2023-08-01T14:37:11;28.48;;;5.25;;
26502;SDS011;14177;51.520;6.764;2023-08-01T14:39:38;38.83;;;7.18;;
26502;SDS011;14177;51.520;6.764;2023-08-01T14:42:05;31.38;;;6.25;;
26502;SDS011;14177;51.520;6.764;2023-08-01T14:44:33;36.75;;;5.55;;
26502;SDS011;14177;51.520;6.764;2023-08-01T14:47:00;35.10;;;6.25;;